createdAt,value
2023-02-23T00:01:37.286Z,12.15
2023-02-23T00:04:04.892Z,12.17
2023-02-23T00:06:33.645Z,12.04
2023-02-23T00:09:01.284Z,11.93
2023-02-23T00:11:28.348Z,11.82
2023-02-23T00:13:56.929Z,11.97
2023-02-23T00:16:26.053Z,12.02
2023-02-23T00:19:00.329Z,12.24
2023-02-23T00:21:30.440Z,12.21
2023-02-23T00:23:59.772Z,12.07
2023-02-23T00:26:35.155Z,12.31
2023-02-23T00:29:17.750Z,12.28
2023-02-23T00:31:48.734Z,12.07
2023-02-23T00:34:21.387Z,12.24
2023-02-23T00:36:54.250Z,12.26
2023-02-23T00:39:22.462Z,12.25
2023-02-23T00:41:50.050Z,12.23
2023-02-23T00:44:16.944Z,12.29
2023-02-23T00:46:45.262Z,12.38
2023-02-23T00:49:13.402Z,12.08
2023-02-23T00:51:40.006Z,12.02
2023-02-23T00:54:07.513Z,11.96
2023-02-23T00:56:34.491Z,12.01
2023-02-23T00:59:01.179Z,11.99
2023-02-23T01:01:28.013Z,11.98
2023-02-23T01:03:54.555Z,11.82
2023-02-23T01:06:21.462Z,11.90
2023-02-23T01:08:50.597Z,11.66
2023-02-23T01:11:23.401Z,11.83
2023-02-23T01:13:53.180Z,11.61
2023-02-23T01:16:22.231Z,11.57
2023-02-23T01:18:49.361Z,11.63
2023-02-23T01:21:19.452Z,11.57
2023-02-23T01:23:46.441Z,11.66
2023-02-23T01:26:22.122Z,11.73
2023-02-23T01:28:50.062Z,11.73
2023-02-23T01:31:17.346Z,11.74
2023-02-23T01:33:44.184Z,11.72
2023-02-23T01:36:10.673Z,11.71
2023-02-23T01:38:37.320Z,11.74
2023-02-23T01:41:04.072Z,11.88
2023-02-23T01:43:30.618Z,11.76
2023-02-23T01:45:58.147Z,11.59
2023-02-23T01:48:34.213Z,11.62
2023-02-23T01:51:29.117Z,11.71
2023-02-23T01:54:09.771Z,11.54
2023-02-23T01:56:43.398Z,11.35
2023-02-23T01:59:12.315Z,11.44
2023-02-23T02:01:41.928Z,11.39
2023-02-23T02:04:16.618Z,11.28
2023-02-23T02:06:45.810Z,11.01
2023-02-23T02:09:19.472Z,11.26
2023-02-23T02:11:53.945Z,10.83
2023-02-23T02:14:29.405Z,10.84
2023-02-23T02:17:11.177Z,10.85
2023-02-23T02:20:14.195Z,11.06
2023-02-23T02:22:55.593Z,11.03
2023-02-23T02:25:53.343Z,11.10
2023-02-23T02:28:30.737Z,11.18
2023-02-23T02:31:16.148Z,11.09
2023-02-23T02:34:01.424Z,11.34
2023-02-23T02:36:43.181Z,11.27
2023-02-23T02:39:37.934Z,11.21
2023-02-23T02:42:21.560Z,10.90
2023-02-23T02:44:54.437Z,11.00
2023-02-23T02:47:45.290Z,11.17
2023-02-23T02:50:21.936Z,10.86
2023-02-23T02:53:00.307Z,11.11
2023-02-23T02:55:34.281Z,11.21
2023-02-23T02:58:03.155Z,11.34
2023-02-23T03:00:55.170Z,11.19
2023-02-23T03:04:00.996Z,11.37
2023-02-23T03:06:57.469Z,11.29
2023-02-23T03:10:02.798Z,11.37
2023-02-23T03:13:06.590Z,11.42
2023-02-23T03:16:26.935Z,11.27
2023-02-23T03:19:31.016Z,11.44
2023-02-23T03:22:42.272Z,11.39
2023-02-23T03:25:37.189Z,11.27
2023-02-23T03:28:32.977Z,11.35
2023-02-23T03:31:34.989Z,11.34
2023-02-23T03:34:36.024Z,11.46
2023-02-23T03:37:36.512Z,11.47
2023-02-23T03:40:27.884Z,11.49
2023-02-23T03:43:15.662Z,11.30
2023-02-23T03:46:04.797Z,11.25
2023-02-23T03:48:51.653Z,10.99
2023-02-23T03:51:38.821Z,11.38
2023-02-23T03:54:33.880Z,11.33
2023-02-23T03:57:22.521Z,11.34
2023-02-23T04:00:13.380Z,11.45
2023-02-23T04:03:01.526Z,11.37
2023-02-23T04:05:48.614Z,11.25
2023-02-23T04:08:38.271Z,11.30
2023-02-23T04:11:38.301Z,11.31
2023-02-23T04:14:10.139Z,11.47
2023-02-23T04:16:39.425Z,11.60
2023-02-23T04:19:06.232Z,11.60
2023-02-23T04:21:32.925Z,11.59
2023-02-23T04:23:59.719Z,11.54
2023-02-23T04:26:26.175Z,11.60
2023-02-23T04:28:52.760Z,11.58
2023-02-23T04:31:20.647Z,11.28
2023-02-23T04:33:48.165Z,11.59
2023-02-23T04:36:14.791Z,11.52
2023-02-23T04:38:41.288Z,11.50
2023-02-23T04:41:07.784Z,11.65
2023-02-23T04:43:34.316Z,11.60
2023-02-23T04:46:01.474Z,11.57
2023-02-23T04:48:28.088Z,11.63
2023-02-23T04:50:54.819Z,11.58
2023-02-23T04:53:21.293Z,11.49
2023-02-23T04:55:47.730Z,11.63
2023-02-23T04:58:14.628Z,11.54
2023-02-23T05:00:41.960Z,11.69
2023-02-23T05:03:08.806Z,11.80
2023-02-23T05:05:35.314Z,11.84
2023-02-23T05:08:01.866Z,11.79
2023-02-23T05:10:28.926Z,11.96
2023-02-23T05:12:55.999Z,11.78
2023-02-23T05:15:22.541Z,11.80
2023-02-23T05:17:49.627Z,11.91
2023-02-23T05:20:16.323Z,11.82
2023-02-23T05:22:42.805Z,11.88
2023-02-23T05:25:10.121Z,11.87
2023-02-23T05:27:36.880Z,11.45
2023-02-23T05:30:04.714Z,11.78
2023-02-23T05:32:31.258Z,11.62
2023-02-23T05:34:57.779Z,11.61
2023-02-23T05:37:24.248Z,11.78
2023-02-23T05:39:50.837Z,11.80
2023-02-23T05:42:17.709Z,11.95
2023-02-23T05:44:44.516Z,11.63
2023-02-23T05:47:11.023Z,11.63
2023-02-23T05:49:38.399Z,11.77
2023-02-23T05:52:05.229Z,11.92
2023-02-23T05:54:31.749Z,11.63
2023-02-23T05:57:00.319Z,11.31
2023-02-23T05:59:28.089Z,11.46
2023-02-23T06:01:54.555Z,11.55
2023-02-23T06:04:22.461Z,11.45
2023-02-23T06:06:49.006Z,11.49
2023-02-23T06:09:15.575Z,11.45
2023-02-23T06:11:42.093Z,11.35
2023-02-23T06:14:08.631Z,11.65
2023-02-23T06:16:35.458Z,11.37
2023-02-23T06:19:02.212Z,11.30
2023-02-23T06:21:28.681Z,11.13
2023-02-23T06:23:55.418Z,11.36
2023-02-23T06:26:22.018Z,11.35
2023-02-23T06:28:48.626Z,11.25
2023-02-23T06:31:15.303Z,11.33
2023-02-23T06:33:41.935Z,11.36
2023-02-23T06:36:08.455Z,11.42
2023-02-23T06:38:35.154Z,11.56
2023-02-23T06:41:09.975Z,11.62
2023-02-23T06:43:36.584Z,11.59
2023-02-23T06:46:04.135Z,11.17
2023-02-23T06:48:30.677Z,11.74
2023-02-23T06:51:00.551Z,11.95
2023-02-23T06:53:27.550Z,11.83
2023-02-23T06:55:54.146Z,11.74
2023-02-23T06:58:20.827Z,12.02
2023-02-23T07:00:47.347Z,11.35
2023-02-23T07:03:13.971Z,11.71
2023-02-23T07:05:40.982Z,11.90
2023-02-23T07:08:08.062Z,11.82
2023-02-23T07:10:35.092Z,11.90
2023-02-23T07:13:01.837Z,11.82
2023-02-23T07:15:28.949Z,12.24
2023-02-23T07:17:55.523Z,12.10
2023-02-23T07:20:22.439Z,11.49
2023-02-23T07:22:49.076Z,11.84
2023-02-23T07:25:15.714Z,11.94
2023-02-23T07:27:42.322Z,11.88
2023-02-23T07:30:09.701Z,11.90
2023-02-23T07:32:36.360Z,12.05
2023-02-23T07:35:04.282Z,11.61
2023-02-23T07:37:30.823Z,11.99
2023-02-23T07:39:59.049Z,12.21
2023-02-23T07:42:26.893Z,11.54
2023-02-23T07:44:53.465Z,12.09
2023-02-23T07:47:19.987Z,12.16
2023-02-23T07:49:46.526Z,12.13
2023-02-23T07:52:17.038Z,12.44
2023-02-23T07:54:43.817Z,12.43
2023-02-23T07:57:11.255Z,12.01
2023-02-23T07:59:39.114Z,12.19
2023-02-23T08:02:05.847Z,12.10
2023-02-23T08:04:32.416Z,12.05
2023-02-23T08:06:59.482Z,12.37
2023-02-23T08:09:25.975Z,12.59
2023-02-23T08:11:52.482Z,12.38
2023-02-23T08:14:21.925Z,12.48
2023-02-23T08:16:50.559Z,12.70
2023-02-23T08:19:18.067Z,12.64
2023-02-23T08:21:45.207Z,12.84
2023-02-23T08:24:11.797Z,12.91
2023-02-23T08:26:38.912Z,12.37
2023-02-23T08:29:05.643Z,12.84
2023-02-23T08:31:32.687Z,13.09
2023-02-23T08:33:59.982Z,12.83
2023-02-23T08:36:26.551Z,12.67
2023-02-23T08:38:56.377Z,12.80
2023-02-23T08:41:23.026Z,12.69
2023-02-23T08:43:49.853Z,12.81
2023-02-23T08:46:18.692Z,12.80
2023-02-23T08:48:46.665Z,12.26
2023-02-23T08:51:14.669Z,12.73
2023-02-23T08:53:41.346Z,12.84
2023-02-23T08:56:08.609Z,12.63
2023-02-23T08:58:36.553Z,12.42
2023-02-23T09:01:04.368Z,12.40
2023-02-23T09:03:31.363Z,12.64
2023-02-23T09:06:04.548Z,13.24
2023-02-23T09:08:31.187Z,12.57
2023-02-23T09:10:57.722Z,13.12
2023-02-23T09:13:24.277Z,12.96
2023-02-23T09:15:50.864Z,13.20
2023-02-23T09:18:18.334Z,13.13
2023-02-23T09:20:45.389Z,12.78
2023-02-23T09:23:13.039Z,12.88
2023-02-23T09:25:43.911Z,12.92
2023-02-23T09:28:19.097Z,13.06
2023-02-23T09:30:46.872Z,13.50
2023-02-23T09:33:14.279Z,13.24
2023-02-23T09:35:41.356Z,13.42
2023-02-23T09:38:08.501Z,13.56
2023-02-23T09:40:49.716Z,13.40
2023-02-23T09:43:17.613Z,13.76
2023-02-23T09:46:27.161Z,13.26
2023-02-23T09:48:56.787Z,13.63
2023-02-23T09:51:24.102Z,13.31
2023-02-23T09:53:56.884Z,13.18
2023-02-23T09:56:40.834Z,13.09
2023-02-23T09:59:13.771Z,13.36
2023-02-23T10:01:49.309Z,13.45
2023-02-23T10:04:39.649Z,13.68
2023-02-23T10:07:21.312Z,14.00
2023-02-23T10:10:22.043Z,14.08
2023-02-23T10:13:20.005Z,13.97
2023-02-23T10:15:57.795Z,13.79
2023-02-23T10:18:46.803Z,14.41
2023-02-23T10:21:21.809Z,14.57
2023-02-23T10:23:54.168Z,13.87
2023-02-23T10:26:25.123Z,14.11
2023-02-23T10:28:54.075Z,14.55
2023-02-23T10:31:43.831Z,14.69
2023-02-23T10:34:14.968Z,14.53
2023-02-23T10:36:46.248Z,13.85
2023-02-23T10:39:13.505Z,14.23
2023-02-23T10:41:41.963Z,14.06
2023-02-23T10:44:18.342Z,14.29
2023-02-23T10:46:47.801Z,14.85
2023-02-23T10:49:19.505Z,14.55
2023-02-23T10:51:46.430Z,14.86
2023-02-23T10:54:45.639Z,14.76
2023-02-23T10:57:20.469Z,15.02
2023-02-23T11:00:00.739Z,14.73
2023-02-23T11:02:30.805Z,14.26
2023-02-23T11:04:59.682Z,14.51
2023-02-23T11:07:29.523Z,14.49
2023-02-23T11:09:57.768Z,14.95
2023-02-23T11:12:37.594Z,14.38
2023-02-23T11:15:21.855Z,14.51
2023-02-23T11:17:55.995Z,14.27
2023-02-23T11:20:42.419Z,14.06
2023-02-23T11:23:14.671Z,14.31
2023-02-23T11:25:45.012Z,14.07
2023-02-23T11:28:41.433Z,14.65
2023-02-23T11:31:17.487Z,14.65
2023-02-23T11:33:45.888Z,14.37
2023-02-23T11:36:26.662Z,14.47
2023-02-23T11:39:07.485Z,14.19
2023-02-23T11:41:37.173Z,14.41
2023-02-23T11:44:06.188Z,14.58
2023-02-23T11:46:39.047Z,14.78
2023-02-23T11:49:17.821Z,15.15
2023-02-23T11:51:49.081Z,16.25
2023-02-23T11:54:25.832Z,17.26
2023-02-23T11:56:55.204Z,20.67
2023-02-23T11:59:32.744Z,21.22
2023-02-23T12:02:24.835Z,17.12
2023-02-23T12:05:17.532Z,18.78
2023-02-23T12:07:57.041Z,18.80
2023-02-23T12:10:29.339Z,21.13
2023-02-23T12:13:34.765Z,22.09
2023-02-23T12:16:33.343Z,20.89
2023-02-23T12:19:06.516Z,19.23
2023-02-23T12:21:39.555Z,18.48
2023-02-23T12:24:24.940Z,18.06
2023-02-23T12:26:58.420Z,17.20
2023-02-23T12:29:37.742Z,16.76
2023-02-23T12:32:14.789Z,16.95
2023-02-23T12:34:53.640Z,16.39
2023-02-23T12:37:31.467Z,16.02
2023-02-23T12:40:07.233Z,15.96
2023-02-23T12:42:52.027Z,15.78
2023-02-23T12:45:24.805Z,15.62
2023-02-23T12:48:12.789Z,16.10
2023-02-23T12:50:45.669Z,16.46
2023-02-23T12:53:19.801Z,16.11
2023-02-23T12:56:22.980Z,15.72
2023-02-23T12:59:20.207Z,15.69
2023-02-23T13:02:00.776Z,15.83
2023-02-23T13:05:05.749Z,15.53
2023-02-23T13:07:50.865Z,15.81
2023-02-23T13:10:29.354Z,15.68
2023-02-23T13:13:11.705Z,15.71
2023-02-23T13:15:55.923Z,15.58
2023-02-23T13:18:29.730Z,15.49
2023-02-23T13:21:07.742Z,15.51
2023-02-23T13:23:44.697Z,15.31
2023-02-23T13:26:39.003Z,15.32
2023-02-23T13:29:14.688Z,15.33
2023-02-23T13:31:42.239Z,15.28
2023-02-23T13:34:18.560Z,15.13
2023-02-23T13:36:45.938Z,15.31
2023-02-23T13:39:33.642Z,15.26
2023-02-23T13:42:26.339Z,15.21
2023-02-23T13:44:58.535Z,15.27
2023-02-23T13:47:25.435Z,15.36
2023-02-23T13:50:01.720Z,15.49
2023-02-23T13:52:38.126Z,15.00
2023-02-23T13:55:05.411Z,15.68
2023-02-23T13:57:32.901Z,15.53
2023-02-23T14:00:00.558Z,15.76
2023-02-23T14:02:31.029Z,16.02
2023-02-23T14:05:04.742Z,15.77
2023-02-23T14:07:33.055Z,15.85
2023-02-23T14:10:06.623Z,16.30
2023-02-23T14:12:42.460Z,16.73
2023-02-23T14:15:25.130Z,17.02
2023-02-23T14:18:03.415Z,16.97
2023-02-23T14:20:46.160Z,17.67
2023-02-23T14:23:28.689Z,17.64
2023-02-23T14:26:32.778Z,17.25
2023-02-23T14:29:25.467Z,17.18
2023-02-23T14:32:20.728Z,16.92
2023-02-23T14:34:59.149Z,17.56
2023-02-23T14:37:25.702Z,17.50
2023-02-23T14:40:01.178Z,17.35
2023-02-23T14:42:32.961Z,17.61
2023-02-23T14:45:07.674Z,18.55
2023-02-23T14:47:45.924Z,17.55
2023-02-23T14:50:24.075Z,18.15
2023-02-23T14:52:51.656Z,17.85
2023-02-23T14:55:29.068Z,17.20
2023-02-23T14:57:56.213Z,16.80
2023-02-23T15:00:33.891Z,16.85
2023-02-23T15:03:00.412Z,16.60
2023-02-23T15:05:45.829Z,16.22
2023-02-23T15:08:18.760Z,16.28
2023-02-23T15:10:47.327Z,16.08
2023-02-23T15:13:28.801Z,16.18
2023-02-23T15:15:57.504Z,15.56
2023-02-23T15:18:31.016Z,15.65
2023-02-23T15:20:57.595Z,15.53
2023-02-23T15:23:26.640Z,15.25
2023-02-23T15:25:53.311Z,15.44
2023-02-23T15:28:21.474Z,15.76
2023-02-23T15:30:49.497Z,15.62
2023-02-23T15:33:28.594Z,15.04
2023-02-23T15:36:07.020Z,14.97
2023-02-23T15:38:43.759Z,15.12
2023-02-23T15:41:37.281Z,14.64
2023-02-23T15:44:12.555Z,14.76
2023-02-23T15:46:41.975Z,15.34
2023-02-23T15:49:12.594Z,15.10
2023-02-23T15:51:51.604Z,14.86
2023-02-23T15:54:27.108Z,14.52
2023-02-23T15:57:01.925Z,14.10
2023-02-23T15:59:34.641Z,14.72
2023-02-23T16:02:03.269Z,14.63
2023-02-23T16:04:42.462Z,14.41
2023-02-23T16:07:20.638Z,14.45
2023-02-23T16:10:08.560Z,14.30
2023-02-23T16:12:39.102Z,14.24
2023-02-23T16:15:21.093Z,14.35
2023-02-23T16:17:53.172Z,14.15
2023-02-23T16:20:34.632Z,14.26
2023-02-23T16:23:02.861Z,14.18
2023-02-23T16:25:30.718Z,14.47
2023-02-23T16:28:18.390Z,14.62
2023-02-23T16:30:58.367Z,14.66
2023-02-23T16:33:28.487Z,14.51
2023-02-23T16:36:10.411Z,14.46
2023-02-23T16:38:41.671Z,14.23
2023-02-23T16:41:19.480Z,14.23
2023-02-23T16:43:48.862Z,14.27
2023-02-23T16:46:20.171Z,14.08
2023-02-23T16:48:47.159Z,14.29
2023-02-23T16:51:18.604Z,14.15
2023-02-23T16:53:46.294Z,13.89
2023-02-23T16:56:16.401Z,13.76
2023-02-23T16:58:46.801Z,14.16
2023-02-23T17:01:14.671Z,14.07
2023-02-23T17:03:52.469Z,14.07
2023-02-23T17:06:20.412Z,13.95
2023-02-23T17:08:56.212Z,14.00
2023-02-23T17:11:24.694Z,13.80
2023-02-23T17:13:52.294Z,13.97
2023-02-23T17:16:19.668Z,14.00
2023-02-23T17:18:46.552Z,13.84
2023-02-23T17:21:14.690Z,13.65
2023-02-23T17:23:51.392Z,13.85
2023-02-23T17:26:20.953Z,13.41
2023-02-23T17:28:47.847Z,13.46
2023-02-23T17:31:16.292Z,13.75
2023-02-23T17:33:44.189Z,13.66
2023-02-23T17:36:13.879Z,13.27
2023-02-23T17:38:44.823Z,13.31
2023-02-23T17:41:18.216Z,13.15
2023-02-23T17:43:45.092Z,13.13
2023-02-23T17:46:12.648Z,13.37
2023-02-23T17:48:40.756Z,13.38
2023-02-23T17:51:09.625Z,13.16
2023-02-23T17:53:36.642Z,13.30
2023-02-23T17:56:03.604Z,13.02
2023-02-23T17:58:30.635Z,12.56
2023-02-23T18:00:59.709Z,12.81
2023-02-23T18:03:31.861Z,12.66
2023-02-23T18:05:59.487Z,12.85
2023-02-23T18:08:26.101Z,12.68
2023-02-23T18:10:54.410Z,12.99
2023-02-23T18:13:21.916Z,12.75
2023-02-23T18:15:53.775Z,12.50
2023-02-23T18:18:22.100Z,12.95
2023-02-23T18:20:51.031Z,13.21
2023-02-23T18:23:18.331Z,13.19
2023-02-23T18:25:44.862Z,12.86
2023-02-23T18:28:12.461Z,13.16
2023-02-23T18:30:41.109Z,12.86
2023-02-23T18:33:08.930Z,12.99
2023-02-23T18:35:41.036Z,13.02
2023-02-23T18:38:11.572Z,12.57
2023-02-23T18:40:39.023Z,12.88
2023-02-23T18:43:06.380Z,12.97
2023-02-23T18:45:33.767Z,12.83
2023-02-23T18:48:00.345Z,12.63
2023-02-23T18:50:27.253Z,13.01
2023-02-23T18:52:56.010Z,13.06
2023-02-23T18:55:23.567Z,12.95
2023-02-23T18:57:52.842Z,12.91
2023-02-23T19:00:20.240Z,12.60
2023-02-23T19:02:47.596Z,12.36
2023-02-23T19:05:18.169Z,12.45
2023-02-23T19:07:45.722Z,12.41
2023-02-23T19:10:14.957Z,12.25
2023-02-23T19:12:41.836Z,12.39
2023-02-23T19:15:09.143Z,12.49
2023-02-23T19:17:36.343Z,12.63
2023-02-23T19:20:07.900Z,12.11
2023-02-23T19:22:34.804Z,12.56
2023-02-23T19:25:01.314Z,12.62
2023-02-23T19:27:28.067Z,12.60
2023-02-23T19:29:54.555Z,12.11
2023-02-23T19:32:21.175Z,11.96
2023-02-23T19:34:48.009Z,11.90
2023-02-23T19:37:14.628Z,11.88
2023-02-23T19:39:41.267Z,12.25
2023-02-23T19:42:09.170Z,12.06
2023-02-23T19:44:35.899Z,12.43
2023-02-23T19:47:02.576Z,12.39
2023-02-23T19:49:29.187Z,12.41
2023-02-23T19:51:57.629Z,12.26
2023-02-23T19:54:26.271Z,12.12
2023-02-23T19:56:53.311Z,11.92
2023-02-23T19:59:19.953Z,11.72
2023-02-23T20:01:46.535Z,12.41
2023-02-23T20:04:13.154Z,12.46
2023-02-23T20:06:44.843Z,12.39
2023-02-23T20:09:11.795Z,12.29
2023-02-23T20:11:38.463Z,12.61
2023-02-23T20:14:07.446Z,12.70
2023-02-23T20:16:35.508Z,12.62
2023-02-23T20:19:03.647Z,12.72
2023-02-23T20:21:32.513Z,12.77
2023-02-23T20:24:01.450Z,12.77
2023-02-23T20:26:33.990Z,12.71
2023-02-23T20:29:01.449Z,12.69
2023-02-23T20:31:35.022Z,12.70
2023-02-23T20:34:06.801Z,12.84
2023-02-23T20:36:33.553Z,12.65
2023-02-23T20:39:00.216Z,12.19
2023-02-23T20:41:31.484Z,12.36
2023-02-23T20:44:01.010Z,12.67
2023-02-23T20:46:30.534Z,12.69
2023-02-23T20:48:59.358Z,12.65
2023-02-23T20:51:27.059Z,12.63
2023-02-23T20:53:53.873Z,12.64
2023-02-23T20:56:21.982Z,12.74
2023-02-23T20:58:48.634Z,12.70
2023-02-23T21:01:18.689Z,12.74
2023-02-23T21:03:46.440Z,12.71
2023-02-23T21:06:15.960Z,12.61
2023-02-23T21:08:42.621Z,12.33
2023-02-23T21:11:09.166Z,12.49
2023-02-23T21:13:36.515Z,12.67
2023-02-23T21:16:03.447Z,12.69
2023-02-23T21:18:31.170Z,12.75
2023-02-23T21:21:07.054Z,12.33
2023-02-23T21:23:33.603Z,12.44
2023-02-23T21:26:07.035Z,12.26
2023-02-23T21:28:33.952Z,12.18
2023-02-23T21:31:00.505Z,12.15
2023-02-23T21:33:27.162Z,12.11
2023-02-23T21:35:58.594Z,11.85
2023-02-23T21:38:25.702Z,11.99
2023-02-23T21:40:52.290Z,11.93
2023-02-23T21:43:19.093Z,12.03
2023-02-23T21:45:49.046Z,12.37
2023-02-23T21:48:15.894Z,11.68
2023-02-23T21:50:42.406Z,12.03
2023-02-23T21:53:09.679Z,12.10
2023-02-23T21:55:40.062Z,11.80
2023-02-23T21:58:07.351Z,12.10
2023-02-23T22:00:35.820Z,12.23
2023-02-23T22:03:03.270Z,12.08
2023-02-23T22:05:29.928Z,11.60
2023-02-23T22:07:56.585Z,11.70
2023-02-23T22:10:24.106Z,11.65
2023-02-23T22:12:56.668Z,11.80
2023-02-23T22:15:33.329Z,11.90
2023-02-23T22:18:00.106Z,11.80
2023-02-23T22:20:26.657Z,11.90
2023-02-23T22:22:53.181Z,11.93
2023-02-23T22:25:20.269Z,11.86
2023-02-23T22:27:46.929Z,11.63
2023-02-23T22:30:14.909Z,11.06
2023-02-23T22:32:42.590Z,11.54
2023-02-23T22:35:10.966Z,11.36
2023-02-23T22:37:38.742Z,11.45
2023-02-23T22:40:13.346Z,11.80
2023-02-23T22:42:39.903Z,11.47
2023-02-23T22:45:07.116Z,11.74
2023-02-23T22:47:34.880Z,11.54
2023-02-23T22:50:01.519Z,11.47
2023-02-23T22:52:29.996Z,11.10
2023-02-23T22:54:56.608Z,11.40
2023-02-23T22:57:23.487Z,11.42
2023-02-23T23:00:00.501Z,11.68
2023-02-23T23:02:32.155Z,11.85
2023-02-23T23:05:01.828Z,11.49
2023-02-23T23:07:30.868Z,11.64
2023-02-23T23:09:58.551Z,11.59
2023-02-23T23:12:27.944Z,11.74
2023-02-23T23:15:01.211Z,11.62
2023-02-23T23:17:31.854Z,11.36
2023-02-23T23:20:00.231Z,11.16
2023-02-23T23:22:27.509Z,11.16
2023-02-23T23:24:54.089Z,11.45
2023-02-23T23:27:21.441Z,11.49
2023-02-23T23:29:48.720Z,11.16
2023-02-23T23:32:18.474Z,10.87
2023-02-23T23:34:48.158Z,10.86
2023-02-23T23:37:19.732Z,11.13
2023-02-23T23:39:46.526Z,11.19
2023-02-23T23:42:13.578Z,11.06
2023-02-23T23:44:40.170Z,10.83
2023-02-23T23:47:06.961Z,10.81
2023-02-23T23:49:38.340Z,10.74
2023-02-23T23:52:05.454Z,10.94
2023-02-23T23:54:42.279Z,11.13
2023-02-23T23:57:11.301Z,11.26
2023-02-23T23:59:45.593Z,11.36
